createdAt,value
2023-03-11T00:00:02.432Z,20.10
2023-03-11T00:02:28.966Z,20.00
2023-03-11T00:04:55.529Z,20.00
2023-03-11T00:07:22.039Z,20.00
2023-03-11T00:09:48.578Z,20.00
2023-03-11T00:12:15.093Z,20.00
2023-03-11T00:14:41.582Z,20.00
2023-03-11T00:17:08.042Z,20.00
2023-03-11T00:19:34.539Z,20.00
2023-03-11T00:22:01.060Z,20.00
2023-03-11T00:24:27.551Z,20.00
2023-03-11T00:26:54.009Z,20.00
2023-03-11T00:29:20.483Z,20.00
2023-03-11T00:31:46.952Z,20.00
2023-03-11T00:34:13.462Z,20.00
2023-03-11T00:36:39.937Z,20.00
2023-03-11T00:39:07.373Z,20.00
2023-03-11T00:41:33.836Z,19.90
2023-03-11T00:44:00.292Z,19.90
2023-03-11T00:46:26.793Z,19.90
2023-03-11T00:48:53.314Z,19.90
2023-03-11T00:51:19.839Z,19.80
2023-03-11T00:53:46.357Z,19.80
2023-03-11T00:56:12.876Z,19.80
2023-03-11T00:58:39.397Z,19.80
2023-03-11T01:01:05.884Z,19.90
2023-03-11T01:03:32.414Z,19.90
2023-03-11T01:05:58.945Z,19.90
2023-03-11T01:08:25.428Z,19.90
2023-03-11T01:10:51.931Z,19.90
2023-03-11T01:13:18.438Z,19.80
2023-03-11T01:15:44.966Z,19.90
2023-03-11T01:18:11.544Z,19.90
2023-03-11T01:20:38.038Z,19.90
2023-03-11T01:23:04.574Z,20.20
2023-03-11T01:25:31.052Z,19.90
2023-03-11T01:27:57.525Z,20.00
2023-03-11T01:30:24.048Z,20.00
2023-03-11T01:32:50.570Z,20.00
2023-03-11T01:35:17.074Z,19.90
2023-03-11T01:37:43.578Z,19.90
2023-03-11T01:40:10.078Z,20.00
2023-03-11T01:42:36.542Z,20.00
2023-03-11T01:45:03.027Z,20.00
2023-03-11T01:47:29.510Z,20.00
2023-03-11T01:49:55.996Z,20.00
2023-03-11T01:52:22.532Z,20.00
2023-03-11T01:54:51.432Z,20.00
2023-03-11T01:57:18.366Z,20.00
2023-03-11T01:59:44.825Z,20.00
2023-03-11T02:02:11.418Z,20.00
2023-03-11T02:04:37.881Z,20.00
2023-03-11T02:07:04.455Z,20.00
2023-03-11T02:09:30.930Z,20.00
2023-03-11T02:11:57.419Z,19.50
2023-03-11T02:14:23.882Z,20.00
2023-03-11T02:16:50.393Z,20.00
2023-03-11T02:19:16.899Z,20.00
2023-03-11T02:21:43.424Z,20.00
2023-03-11T02:24:09.872Z,20.00
2023-03-11T02:26:36.412Z,20.00
2023-03-11T02:29:02.890Z,20.00
2023-03-11T02:31:29.401Z,20.00
2023-03-11T02:33:55.914Z,20.00
2023-03-11T02:36:22.404Z,20.00
2023-03-11T02:38:48.883Z,20.00
2023-03-11T02:41:15.349Z,20.00
2023-03-11T02:43:41.828Z,20.00
2023-03-11T02:46:08.312Z,20.00
2023-03-11T02:48:34.846Z,20.00
2023-03-11T02:51:01.298Z,20.00
2023-03-11T02:53:27.794Z,20.00
2023-03-11T02:55:54.268Z,20.00
2023-03-11T02:58:20.751Z,20.00
2023-03-11T03:00:47.280Z,20.00
2023-03-11T03:03:13.807Z,20.00
2023-03-11T03:05:40.288Z,20.00
2023-03-11T03:08:06.772Z,20.00
2023-03-11T03:10:33.287Z,20.00
2023-03-11T03:12:59.818Z,19.70
2023-03-11T03:15:26.341Z,20.00
2023-03-11T03:17:52.863Z,20.00
2023-03-11T03:20:19.356Z,20.00
2023-03-11T03:22:45.862Z,20.00
2023-03-11T03:25:12.365Z,20.00
2023-03-11T03:27:38.932Z,20.00
2023-03-11T03:30:05.475Z,20.10
2023-03-11T03:32:31.975Z,20.00
2023-03-11T03:34:58.440Z,20.10
2023-03-11T03:37:24.964Z,20.00
2023-03-11T03:39:51.454Z,20.00
2023-03-11T03:42:17.895Z,20.00
2023-03-11T03:44:44.365Z,20.00
2023-03-11T03:47:10.827Z,20.10
2023-03-11T03:49:37.338Z,20.10
2023-03-11T03:52:03.812Z,20.00
2023-03-11T03:54:30.315Z,20.00
2023-03-11T03:56:56.798Z,20.00
2023-03-11T03:59:23.288Z,20.00
2023-03-11T04:01:49.883Z,20.00
2023-03-11T04:04:16.390Z,19.90
2023-03-11T04:06:42.847Z,19.90
2023-03-11T04:09:09.319Z,19.80
2023-03-11T04:11:35.848Z,19.80
2023-03-11T04:14:02.302Z,19.90
2023-03-11T04:16:28.870Z,21.00
2023-03-11T04:18:55.373Z,19.80
2023-03-11T04:21:21.862Z,19.80
2023-03-11T04:23:48.337Z,19.80
2023-03-11T04:26:14.861Z,19.90
2023-03-11T04:28:41.316Z,19.90
2023-03-11T04:31:07.847Z,19.90
2023-03-11T04:33:34.415Z,19.90
2023-03-11T04:36:00.961Z,19.90
2023-03-11T04:38:27.555Z,19.90
2023-03-11T04:40:54.093Z,20.00
2023-03-11T04:43:20.554Z,20.00
2023-03-11T04:45:47.076Z,20.00
2023-03-11T04:48:13.592Z,19.90
2023-03-11T04:50:40.084Z,20.00
2023-03-11T04:53:06.570Z,20.10
2023-03-11T04:55:33.085Z,20.00
2023-03-11T04:57:59.616Z,20.00
2023-03-11T05:00:26.152Z,20.00
2023-03-11T05:02:52.685Z,20.00
2023-03-11T05:05:19.167Z,20.00
2023-03-11T05:07:45.665Z,20.00
2023-03-11T05:10:12.112Z,20.00
2023-03-11T05:12:38.594Z,20.00
2023-03-11T05:15:05.079Z,20.00
2023-03-11T05:17:31.575Z,20.00
2023-03-11T05:19:58.029Z,20.00
2023-03-11T05:22:24.476Z,20.00
2023-03-11T05:24:50.958Z,20.00
2023-03-11T05:27:17.407Z,20.10
2023-03-11T05:29:43.869Z,20.00
2023-03-11T05:32:10.370Z,20.10
2023-03-11T05:34:36.862Z,20.10
2023-03-11T05:37:03.450Z,20.00
2023-03-11T05:39:29.941Z,20.00
2023-03-11T05:41:56.405Z,20.00
2023-03-11T05:44:22.904Z,20.00
2023-03-11T05:46:49.479Z,20.00
2023-03-11T05:49:16.002Z,20.00
2023-03-11T05:51:42.500Z,20.00
2023-03-11T05:54:08.994Z,20.00
2023-03-11T05:56:35.478Z,20.00
2023-03-11T05:59:01.996Z,19.70
2023-03-11T06:01:28.441Z,20.00
2023-03-11T06:03:55.066Z,20.00
2023-03-11T06:06:21.604Z,20.00
2023-03-11T06:08:48.092Z,20.80
2023-03-11T06:11:14.590Z,20.00
2023-03-11T06:13:41.078Z,20.00
2023-03-11T06:16:07.591Z,20.00
2023-03-11T06:18:34.116Z,20.00
2023-03-11T06:21:00.653Z,20.00
2023-03-11T06:23:27.121Z,20.00
2023-03-11T06:25:53.578Z,20.00
2023-03-11T06:28:20.089Z,20.00
2023-03-11T06:30:46.574Z,20.00
2023-03-11T06:33:13.062Z,20.10
2023-03-11T06:35:39.582Z,20.00
2023-03-11T06:38:06.129Z,20.10
2023-03-11T06:40:32.629Z,20.10
2023-03-11T06:42:59.121Z,20.60
2023-03-11T06:45:25.597Z,20.20
2023-03-11T06:47:52.118Z,20.20
2023-03-11T06:50:18.622Z,20.20
2023-03-11T06:52:45.086Z,20.30
2023-03-11T06:55:11.582Z,20.20
2023-03-11T06:57:38.054Z,20.30
2023-03-11T07:00:04.579Z,20.40
2023-03-11T07:02:31.076Z,20.30
2023-03-11T07:04:57.555Z,20.40
2023-03-11T07:07:24.011Z,20.40
2023-03-11T07:09:50.522Z,20.40
2023-03-11T07:12:17.022Z,20.40
2023-03-11T07:14:43.550Z,20.40
2023-03-11T07:17:10.033Z,20.40
2023-03-11T07:19:37.659Z,20.40
2023-03-11T07:22:04.125Z,20.30
2023-03-11T07:24:30.578Z,20.30
2023-03-11T07:26:57.065Z,20.30
2023-03-11T07:29:23.542Z,20.30
2023-03-11T07:31:50.044Z,20.30
2023-03-11T07:34:16.697Z,20.40
2023-03-11T07:36:43.197Z,20.50
2023-03-11T07:39:09.638Z,20.50
2023-03-11T07:41:36.095Z,20.50
2023-03-11T07:44:02.582Z,20.60
2023-03-11T07:46:29.075Z,20.60
2023-03-11T07:48:55.593Z,20.60
2023-03-11T07:51:22.100Z,20.60
2023-03-11T07:53:48.624Z,20.60
2023-03-11T07:56:15.076Z,20.60
2023-03-11T07:58:41.589Z,20.60
2023-03-11T08:01:08.100Z,20.70
2023-03-11T08:03:34.603Z,20.90
2023-03-11T08:06:01.180Z,20.70
2023-03-11T08:08:27.671Z,20.80
2023-03-11T08:10:54.132Z,20.80
2023-03-11T08:13:20.606Z,20.80
2023-03-11T08:15:47.137Z,20.80
2023-03-11T08:18:13.668Z,20.90
2023-03-11T08:20:40.300Z,20.90
2023-03-11T08:23:06.794Z,21.10
2023-03-11T08:25:33.405Z,20.90
2023-03-11T08:27:59.936Z,20.90
2023-03-11T08:30:26.469Z,21.00
2023-03-11T08:32:53.138Z,20.90
2023-03-11T08:35:19.621Z,20.80
2023-03-11T08:37:46.377Z,20.90
2023-03-11T08:40:12.834Z,20.90
2023-03-11T08:42:39.306Z,20.80
2023-03-11T08:45:05.760Z,20.80
2023-03-11T08:47:32.228Z,20.80
2023-03-11T08:49:58.712Z,20.70
2023-03-11T08:52:25.178Z,20.80
2023-03-11T08:54:51.662Z,20.80
2023-03-11T08:57:18.146Z,20.70
2023-03-11T08:59:44.622Z,20.80
2023-03-11T09:02:11.077Z,20.80
2023-03-11T09:04:37.567Z,20.80
2023-03-11T09:07:04.052Z,20.80
2023-03-11T09:09:30.502Z,20.80
2023-03-11T09:11:56.968Z,20.80
2023-03-11T09:14:23.462Z,20.80
2023-03-11T09:16:49.971Z,20.80
2023-03-11T09:19:16.474Z,20.80
2023-03-11T09:21:42.985Z,20.80
2023-03-11T09:24:09.471Z,20.80
2023-03-11T09:26:35.950Z,20.80
2023-03-11T09:29:02.424Z,20.70
2023-03-11T09:31:28.910Z,20.70
2023-03-11T09:33:55.419Z,20.80
2023-03-11T09:36:21.923Z,20.70
2023-03-11T09:38:48.394Z,20.80
2023-03-11T09:41:14.876Z,20.80
2023-03-11T09:43:41.390Z,20.80
2023-03-11T09:46:07.887Z,20.80
2023-03-11T09:48:34.341Z,20.70
2023-03-11T09:51:00.832Z,20.70
2023-03-11T09:53:27.299Z,20.70
2023-03-11T09:55:53.942Z,20.70
2023-03-11T09:58:20.427Z,20.70
2023-03-11T10:00:46.906Z,20.70
2023-03-11T10:03:13.454Z,20.30
2023-03-11T10:05:39.991Z,20.60
2023-03-11T10:08:06.469Z,20.50
2023-03-11T10:10:32.963Z,20.50
2023-03-11T10:12:59.453Z,20.30
2023-03-11T10:15:25.941Z,20.50
2023-03-11T10:17:52.423Z,20.50
2023-03-11T10:20:18.938Z,20.40
2023-03-11T10:22:45.483Z,20.40
2023-03-11T10:25:11.941Z,20.40
2023-03-11T10:27:40.368Z,20.30
2023-03-11T10:30:08.126Z,20.30
2023-03-11T10:32:34.716Z,20.30
2023-03-11T10:35:01.223Z,20.30
2023-03-11T10:37:36.043Z,21.60
2023-03-11T10:40:12.871Z,20.20
2023-03-11T10:42:39.423Z,20.20
2023-03-11T10:45:05.919Z,20.20
2023-03-11T10:47:32.407Z,20.10
2023-03-11T10:49:58.984Z,20.10
2023-03-11T10:52:25.451Z,20.10
2023-03-11T10:54:51.971Z,19.80
2023-03-11T10:57:18.448Z,20.30
2023-03-11T10:59:44.912Z,20.30
2023-03-11T11:02:11.446Z,20.30
2023-03-11T11:04:37.954Z,20.40
2023-03-11T11:07:04.468Z,20.40
2023-03-11T11:09:30.921Z,20.50
2023-03-11T11:11:57.427Z,20.40
2023-03-11T11:14:23.930Z,20.50
2023-03-11T11:16:50.450Z,20.50
2023-03-11T11:19:17.330Z,20.50
2023-03-11T11:21:43.886Z,20.50
2023-03-11T11:24:10.381Z,20.40
2023-03-11T11:26:36.888Z,20.40
2023-03-11T11:29:03.390Z,20.40
2023-03-11T11:31:29.849Z,20.30
2023-03-11T11:33:56.339Z,20.30
2023-03-11T11:36:22.806Z,20.30
2023-03-11T11:38:49.274Z,20.30
2023-03-11T11:41:15.847Z,20.30
2023-03-11T11:43:42.329Z,20.30
2023-03-11T11:46:08.870Z,20.20
2023-03-11T11:48:35.373Z,20.20
2023-03-11T11:51:01.902Z,20.20
2023-03-11T11:53:28.365Z,20.20
2023-03-11T11:55:54.834Z,20.20
2023-03-11T11:58:21.334Z,20.10
2023-03-11T12:00:47.843Z,20.10
2023-03-11T12:03:14.386Z,20.10
2023-03-11T12:05:40.868Z,20.00
2023-03-11T12:08:07.370Z,20.00
2023-03-11T12:10:33.879Z,20.00
2023-03-11T12:13:00.366Z,19.90
2023-03-11T12:15:26.848Z,19.90
2023-03-11T12:17:53.362Z,20.00
2023-03-11T12:20:19.874Z,20.00
2023-03-11T12:22:46.387Z,20.00
2023-03-11T12:25:12.843Z,20.00
2023-03-11T12:27:39.367Z,20.00
2023-03-11T12:30:05.860Z,20.00
2023-03-11T12:32:32.469Z,20.00
2023-03-11T12:34:59.014Z,20.00
2023-03-11T12:37:25.471Z,20.00
2023-03-11T12:39:51.916Z,20.10
2023-03-11T12:42:18.380Z,20.00
2023-03-11T12:44:44.946Z,20.00
2023-03-11T12:47:11.586Z,20.00
2023-03-11T12:49:38.094Z,20.00
2023-03-11T12:52:04.578Z,19.90
2023-03-11T12:54:31.142Z,19.90
2023-03-11T12:56:57.614Z,19.90
2023-03-11T12:59:24.096Z,19.90
2023-03-11T13:01:50.653Z,19.90
2023-03-11T13:04:17.187Z,19.80
2023-03-11T13:06:43.655Z,19.90
2023-03-11T13:09:10.168Z,19.90
2023-03-11T13:11:37.818Z,19.90
2023-03-11T13:14:04.314Z,19.90
2023-03-11T13:16:30.899Z,19.80
2023-03-11T13:18:57.461Z,19.80
2023-03-11T13:21:23.936Z,19.80
2023-03-11T13:23:50.443Z,19.80
2023-03-11T13:26:17.048Z,19.80
2023-03-11T13:28:43.537Z,19.80
2023-03-11T13:31:10.101Z,19.80
2023-03-11T13:33:36.641Z,19.80
2023-03-11T13:36:09.858Z,19.80
2023-03-11T13:38:36.327Z,19.70
2023-03-11T13:41:02.846Z,19.70
2023-03-11T13:43:29.319Z,19.80
2023-03-11T13:45:55.851Z,19.70
2023-03-11T13:48:22.414Z,19.70
2023-03-11T13:50:48.913Z,19.70
2023-03-11T13:53:15.463Z,19.70
2023-03-11T13:55:41.975Z,19.60
2023-03-11T13:58:08.485Z,19.60
2023-03-11T14:00:34.960Z,19.60
2023-03-11T14:03:01.443Z,19.60
2023-03-11T14:05:27.931Z,19.60
2023-03-11T14:07:54.440Z,19.60
2023-03-11T14:10:20.962Z,19.60
2023-03-11T14:12:47.533Z,19.50
2023-03-11T14:15:14.004Z,19.50
2023-03-11T14:17:40.526Z,19.50
2023-03-11T14:20:07.112Z,19.50
2023-03-11T14:22:33.666Z,19.50
2023-03-11T14:25:00.175Z,19.50
2023-03-11T14:27:26.634Z,19.50
2023-03-11T14:29:53.125Z,19.50
2023-03-11T14:32:19.605Z,19.50
2023-03-11T14:34:46.124Z,19.50
2023-03-11T14:37:12.620Z,19.50
2023-03-11T14:39:39.142Z,19.50
2023-03-11T14:42:05.611Z,19.50
2023-03-11T14:44:32.129Z,19.50
2023-03-11T14:46:58.585Z,19.40
2023-03-11T14:49:25.060Z,19.50
2023-03-11T14:51:51.591Z,19.50
2023-03-11T14:54:18.080Z,19.50
2023-03-11T14:56:44.568Z,19.50
2023-03-11T14:59:12.538Z,19.50
2023-03-11T15:01:39.214Z,19.40
2023-03-11T15:04:05.683Z,19.40
2023-03-11T15:06:32.169Z,19.40
2023-03-11T15:08:58.667Z,19.50
2023-03-11T15:11:25.172Z,19.40
2023-03-11T15:13:51.688Z,19.40
2023-03-11T15:16:18.200Z,19.40
2023-03-11T15:18:44.716Z,19.40
2023-03-11T15:21:11.216Z,19.40
2023-03-11T15:23:37.746Z,19.40
2023-03-11T15:26:04.255Z,19.40
2023-03-11T15:28:30.793Z,19.40
2023-03-11T15:30:57.300Z,19.40
2023-03-11T15:33:23.814Z,19.40
2023-03-11T15:35:50.327Z,19.40
2023-03-11T15:38:16.856Z,19.40
2023-03-11T15:40:45.815Z,19.40
2023-03-11T15:43:12.645Z,20.10
2023-03-11T15:45:39.103Z,19.40
2023-03-11T15:48:05.593Z,19.40
2023-03-11T15:50:46.570Z,19.50
2023-03-11T15:53:17.223Z,19.50
2023-03-11T15:55:43.691Z,19.50
2023-03-11T15:58:10.155Z,19.50
2023-03-11T16:00:36.623Z,19.50
2023-03-11T16:03:03.111Z,19.70
2023-03-11T16:05:29.581Z,19.60
2023-03-11T16:07:56.075Z,19.60
2023-03-11T16:10:22.578Z,19.60
2023-03-11T16:12:49.073Z,19.60
2023-03-11T16:15:15.583Z,19.70
2023-03-11T16:17:49.941Z,19.60
2023-03-11T16:20:16.773Z,19.60
2023-03-11T16:22:43.487Z,19.70
2023-03-11T16:25:10.016Z,19.70
2023-03-11T16:27:36.562Z,19.70
2023-03-11T16:30:03.180Z,19.70
2023-03-11T16:32:29.748Z,19.70
2023-03-11T16:34:56.236Z,19.70
2023-03-11T16:37:22.704Z,19.70
2023-03-11T16:39:49.177Z,19.70
2023-03-11T16:42:15.730Z,19.60
2023-03-11T16:44:42.260Z,19.70
2023-03-11T16:47:08.777Z,19.70
2023-03-11T16:49:35.335Z,19.70
2023-03-11T16:52:01.948Z,19.70
2023-03-11T16:54:28.527Z,19.70
2023-03-11T16:56:55.068Z,19.70
2023-03-11T16:59:21.565Z,19.80
2023-03-11T17:01:48.128Z,19.80
2023-03-11T17:04:14.630Z,19.80
2023-03-11T17:06:41.121Z,19.90
2023-03-11T17:09:07.656Z,20.00
2023-03-11T17:11:34.115Z,20.00
2023-03-11T17:14:13.870Z,20.20
2023-03-11T17:16:42.266Z,20.20
2023-03-11T17:19:08.757Z,20.20
2023-03-11T17:21:35.301Z,20.10
2023-03-11T17:24:01.774Z,20.20
2023-03-11T17:26:28.433Z,20.30
2023-03-11T17:28:54.910Z,20.20
2023-03-11T17:31:21.449Z,20.20
2023-03-11T17:33:47.981Z,20.10
2023-03-11T17:36:14.616Z,20.10
2023-03-11T17:38:41.138Z,20.00
2023-03-11T17:41:07.626Z,20.00
2023-03-11T17:43:34.089Z,20.00
2023-03-11T17:46:00.685Z,20.00
2023-03-11T17:48:27.202Z,20.00
2023-03-11T17:50:53.704Z,19.90
2023-03-11T17:53:20.238Z,19.90
2023-03-11T17:55:46.702Z,19.90
2023-03-11T17:58:13.213Z,19.90
2023-03-11T18:00:39.690Z,19.90
2023-03-11T18:03:06.243Z,20.50
2023-03-11T18:05:32.738Z,19.90
2023-03-11T18:07:59.263Z,19.90
2023-03-11T18:10:25.719Z,19.90
2023-03-11T18:12:52.259Z,19.90
2023-03-11T18:15:18.742Z,19.80
2023-03-11T18:17:45.319Z,19.80
2023-03-11T18:20:11.814Z,19.80
2023-03-11T18:22:40.160Z,19.80
2023-03-11T18:25:08.643Z,19.80
2023-03-11T18:27:35.133Z,19.70
2023-03-11T18:30:01.674Z,19.70
2023-03-11T18:32:28.276Z,19.70
2023-03-11T18:34:54.767Z,19.70
2023-03-11T18:37:21.294Z,19.70
2023-03-11T18:39:47.830Z,19.70
2023-03-11T18:42:14.331Z,19.80
2023-03-11T18:44:40.775Z,19.70
2023-03-11T18:47:07.226Z,19.80
2023-03-11T18:49:33.759Z,19.80
2023-03-11T18:52:00.246Z,19.90
2023-03-11T18:54:26.710Z,19.80
2023-03-11T18:56:53.174Z,19.90
2023-03-11T18:59:19.660Z,19.90
2023-03-11T19:01:46.194Z,19.90
2023-03-11T19:04:12.664Z,19.90
2023-03-11T19:06:39.155Z,19.80
2023-03-11T19:09:05.618Z,19.90
2023-03-11T19:11:32.107Z,19.90
2023-03-11T19:13:58.625Z,19.90
2023-03-11T19:16:25.273Z,19.90
2023-03-11T19:18:51.821Z,19.90
2023-03-11T19:21:18.367Z,20.00
2023-03-11T19:23:44.903Z,20.00
2023-03-11T19:26:11.409Z,20.00
2023-03-11T19:28:37.860Z,20.00
2023-03-11T19:31:04.413Z,20.00
2023-03-11T19:33:30.962Z,20.00
2023-03-11T19:35:57.522Z,20.00
2023-03-11T19:38:24.078Z,19.90
2023-03-11T19:40:50.619Z,20.00
2023-03-11T19:43:17.114Z,19.90
2023-03-11T19:45:43.645Z,20.00
2023-03-11T19:48:13.062Z,20.00
2023-03-11T19:50:39.752Z,20.00
2023-03-11T19:53:06.209Z,19.70
2023-03-11T19:55:32.719Z,20.00
2023-03-11T19:57:59.246Z,20.10
2023-03-11T20:00:25.698Z,20.00
2023-03-11T20:02:52.268Z,20.00
2023-03-11T20:05:18.867Z,20.10
2023-03-11T20:07:45.379Z,20.10
2023-03-11T20:10:11.935Z,20.00
2023-03-11T20:12:38.760Z,20.00
2023-03-11T20:15:05.919Z,20.10
2023-03-11T20:17:32.441Z,20.00
2023-03-11T20:19:58.948Z,20.00
2023-03-11T20:22:25.431Z,20.10
2023-03-11T20:24:51.906Z,20.10
2023-03-11T20:27:18.456Z,20.10
2023-03-11T20:29:44.956Z,20.10
2023-03-11T20:32:11.448Z,20.00
2023-03-11T20:34:38.010Z,20.10
2023-03-11T20:37:04.529Z,20.10
2023-03-11T20:39:31.077Z,20.10
2023-03-11T20:41:57.539Z,20.00
2023-03-11T20:44:24.113Z,20.10
2023-03-11T20:46:50.620Z,20.10
2023-03-11T20:49:17.174Z,20.20
2023-03-11T20:51:43.693Z,20.30
2023-03-11T20:54:10.177Z,20.20
2023-03-11T20:56:36.854Z,20.20
2023-03-11T20:59:04.026Z,20.20
2023-03-11T21:01:31.479Z,20.10
2023-03-11T21:03:58.245Z,20.00
2023-03-11T21:06:24.881Z,20.00
2023-03-11T21:08:51.550Z,20.00
2023-03-11T21:11:18.213Z,19.90
2023-03-11T21:13:44.721Z,19.90
2023-03-11T21:16:11.489Z,19.90
2023-03-11T21:18:38.047Z,19.90
2023-03-11T21:21:04.533Z,20.00
2023-03-11T21:23:31.144Z,20.00
2023-03-11T21:25:57.835Z,19.90
2023-03-11T21:28:24.446Z,20.00
2023-03-11T21:30:50.933Z,19.90
2023-03-11T21:33:17.551Z,19.90
2023-03-11T21:35:44.279Z,20.00
2023-03-11T21:38:10.965Z,20.00
2023-03-11T21:40:37.542Z,20.00
2023-03-11T21:43:04.022Z,20.10
2023-03-11T21:45:30.583Z,20.10
2023-03-11T21:47:57.188Z,20.10
2023-03-11T21:50:23.685Z,20.00
2023-03-11T21:52:50.220Z,20.10
2023-03-11T21:55:16.773Z,20.00
2023-03-11T21:57:43.362Z,20.10
2023-03-11T22:00:09.893Z,20.00
2023-03-11T22:02:36.471Z,20.00
2023-03-11T22:05:03.218Z,20.00
2023-03-11T22:07:29.727Z,20.00
2023-03-11T22:09:56.364Z,20.10
2023-03-11T22:12:23.141Z,20.00
2023-03-11T22:14:49.896Z,20.10
2023-03-11T22:17:16.720Z,20.10
2023-03-11T22:19:43.343Z,20.00
2023-03-11T22:22:10.038Z,20.10
2023-03-11T22:24:36.485Z,20.10
2023-03-11T22:27:02.958Z,20.00
2023-03-11T22:29:29.439Z,20.00
2023-03-11T22:31:55.912Z,20.00
2023-03-11T22:34:22.399Z,20.00
2023-03-11T22:36:48.861Z,20.00
2023-03-11T22:39:15.375Z,20.00
2023-03-11T22:41:41.898Z,20.10
2023-03-11T22:44:08.438Z,20.10
2023-03-11T22:46:34.938Z,20.10
2023-03-11T22:49:01.475Z,20.20
2023-03-11T22:51:27.973Z,20.10
2023-03-11T22:53:54.421Z,20.10
2023-03-11T22:56:20.899Z,20.10
2023-03-11T22:58:47.366Z,20.10
2023-03-11T23:01:13.853Z,20.00
2023-03-11T23:03:40.474Z,20.00
2023-03-11T23:06:07.038Z,20.10
2023-03-11T23:08:33.596Z,20.10
2023-03-11T23:11:00.128Z,20.00
2023-03-11T23:13:26.626Z,20.20
2023-03-11T23:15:53.190Z,20.10
2023-03-11T23:18:19.684Z,20.10
2023-03-11T23:20:46.179Z,20.10
2023-03-11T23:23:12.700Z,19.70
2023-03-11T23:25:39.199Z,20.10
2023-03-11T23:28:05.712Z,20.10
2023-03-11T23:30:32.305Z,20.10
2023-03-11T23:32:58.892Z,20.00
2023-03-11T23:35:25.369Z,20.10
2023-03-11T23:37:51.850Z,20.10
2023-03-11T23:40:18.322Z,20.00
2023-03-11T23:42:44.803Z,20.00
2023-03-11T23:45:11.338Z,20.10
2023-03-11T23:47:37.841Z,20.10
2023-03-11T23:50:04.381Z,20.10
2023-03-11T23:52:30.865Z,20.00
2023-03-11T23:54:57.384Z,20.10
2023-03-11T23:57:23.897Z,20.10
2023-03-11T23:59:50.387Z,20.00
